Tiempo atmosférico en la estación meteorológica de Osuna, Sevilla (255 m.)



Fecha
DESCASC
Temp. máxima en grados centígrados (hora)
DESCASC
Temp. mínima en grados centígrados (hora)
DESCASC
Temp. media en grados centígrados
DESCASC
Racha de viento máxima en m/sg (hora)
DESCASC
Velocidad máxima media en intervalos de 10 minutos(hora)
DESCASC
Precipitaciones diarias en mm
DESCASC
Precipitaciones de 00:00 a 06:00 en mm
DESCASC
Precipitaciones de 06:00 a 12:00 en mm
DESCASC
Precipitaciones de 12:00 a 18:00 en mm
DESCASC
Precipitaciones de 18:00 a 24:00 en mm
DESCASC
05-04-2020 21.2 (16:10) 13.1 (07:10) 17.2 14.72 (01:00) 7.78 (00:50) 0 0 0 0 0
04-04-2020 16.7 (13:10) 12 (02:30) 14.4 19.72 (14:00) 11.11 (15:50) 0 0 0 0 0
03-04-2020 20 (17:20) 9.8 (08:00) 14.9 11.39 (23:50) 5.83 (23:50) 0 0 0 0 0
02-04-2020 14.1 (19:10) 9.3 (00:00) 11.7 9.44 (07:00) 6.11 (14:20) 8.8 7.6 1 0.2 0
01-04-2020 17 (15:50) 9.7 (00:00) 13.3 13.33 (17:30) 8.61 (17:30) 1.8 0 0 0.2 1.6
31-03-2020 18.5 (15:20) 11.3 (00:00) 14.9 11.39 (14:40) 7.22 (13:30) 31.6 22.6 5 0.4 3.6
30-03-2020 18.1 (15:40) 10.7 (00:00) 14.4 11.11 (17:50) 8.06 (17:50) 4.2 0.2 0 0 4
29-03-2020 19.7 (16:10) 10.9 (00:00) 15.3 5.83 (20:50) 3.89 (20:50) 0 0 0 0 0
28-03-2020 17.8 (12:40) 8.8 (00:00) 13.3 10.28 (13:50) 5.28 (14:20) 0 0 0 0 0
27-03-2020 18.1 (15:40) 9.6 (00:00) 13.9 13.33 (13:10) 7.5 (12:30) 0 0 0 0 0
26-03-2020 20.8 (17:00) 12 (00:00) 16.4 13.61 (17:50) 8.61 (18:00) 0 0 0 0 0
25-03-2020 19 (17:50) 10.8 (00:00) 14.9 9.72 (12:40) 6.39 (13:00) 0 0 0 0 0
24-03-2020 19.8 (16:40) 8.8 (00:00) 14.3 6.94 (18:10) 3.89 (18:00) 0.2 0 0.2 0 0
23-03-2020 16.6 (14:20) 8.6 (00:00) 12.6 9.72 (18:10) 5.28 (18:10) 0.8 0 0 0.4 0.4
22-03-2020 13.8 (18:50) 8.7 (07:30) 11.3 6.39 (00:40) 3.06 (13:40) 12.8 2 0 10.8 0
21-03-2020 15.3 (13:20) 9.1 (00:00) 12.2 11.94 (01:00) 6.67 (01:00) 25.2 20 0.4 0.8 4
20-03-2020 18.7 (14:10) 11.9 (00:00) 15.3 14.72 (20:50) 7.5 (21:30) 0.4 0 0.2 0.2 0
19-03-2020 18.3 (12:50) 13.2 (00:00) 15.7 16.11 (00:20) 8.06 (00:30) 0 0 0 0 0
18-03-2020 20.6 (16:00) 11.9 (00:00) 16.3 13.61 (23:59) 6.67 (16:30) 0 0 0 0 0
17-03-2020 16.6 (17:10) 7.1 (00:00) 11.9 13.89 (13:20) 7.78 (13:20) 3.4 2.4 1 0 0
16-03-2020 14.8 (00:00) 7.6 (00:00) 11.2 10.83 (13:30) 6.67 (13:20) 1 0.6 0.2 0 0.2
15-03-2020 21.7 (16:20) 11.9 (00:00) 16.8 8.89 (20:40) 5.83 (20:40) 0 0 0 0 0
14-03-2020 21.5 (17:30) 9.8 (00:00) 15.7 6.11 (23:59) 4.17 (23:59) 0 0 0 0 0
13-03-2020 22.4 (17:20) 10.6 (06:20) 16.5 8.06 (16:50) 5.28 (18:10) 0 0 0 0 0
12-03-2020 25.9 (17:20) 16.5 (00:00) 21.2 9.17 (04:40) 5.83 (04:40) 0 0 0 0 0
11-03-2020 27.8 (15:20) 14.7 (00:00) 21.2 12.22 (14:30) 6.67 (14:30) 0 0 0 0 0
10-03-2020 26 (16:50) 11.5 (00:00) 18.8 7.78 (19:50) 5 (22:00) 0 0 0 0 0
09-03-2020 21.2 (18:10) 11 (00:00) 16.1 6.94 (15:40) 3.89 (15:50) 0 0 0 0 0

Gráficas

Temp. máximas Temp. mínimas Temp. medias Precipitaciones Rachas de viento máximas Velocidades máximas media en intervalos de 10 minutos

Datos horarios

Fecha y hora oficial Temperatura (ºC) Velocidad del viento (km/h) Dirección del viento Racha (km/h) Dirección de racha Precipitación (mm) Presión (hPa) Tendencia (hPa) Humedad (%)
2020-04-07 23:00:00 16.2 13 Sudeste 24 Este 0 -- -- 75
2020-04-07 22:00:00 17.1 13 Sudeste 21 Sudeste 0 -- -- 72
2020-04-07 21:00:00 18.6 13 Sudeste 20 Sudeste 0 -- -- 66
2020-04-07 20:00:00 20.3 13 Sudeste 21 Sudeste 0 -- -- 62
2020-04-07 19:00:00 21.3 8 Sudeste 18 Este 0 -- -- 58
2020-04-07 18:00:00 22.3 7 Sudeste 21 Sudeste 0 -- -- 56
2020-04-07 17:00:00 22.7 6 Sudeste 18 Sur 0 -- -- 54
2020-04-07 16:00:00 21.7 9 Sudeste 23 Sudeste 0 -- -- 56
2020-04-07 15:00:00 20.9 14 Sudeste 29 Sudeste 0 -- -- 58
2020-04-07 14:00:00 20.3 14 Sudeste 30 Sudeste 0 -- -- 59
2020-04-07 13:00:00 19.8 13 Sudeste 25 Sudeste 0 -- -- 59
2020-04-07 12:00:00 18.9 9 Sudeste 20 Sudeste 0 -- -- 63
2020-04-07 11:00:00 17 3 Oeste 9 Noroeste 0 -- -- 74
2020-04-07 10:00:00 15.8 4 Oeste 17 Sudeste 0 -- -- 78
2020-04-07 09:00:00 13.9 7 Sudeste 14 Sudeste 0 -- -- 83
2020-04-07 08:00:00 13.5 7 Sudeste 14 Sudeste 0 -- -- 83
2020-04-07 07:00:00 13.6 6 Este 13 Sudeste 0 -- -- 82
2020-04-07 06:00:00 13.9 8 Sudeste 14 Este 0 -- -- 81
2020-04-07 05:00:00 14.1 6 Sudeste 13 Sudeste 0 -- -- 81
2020-04-07 04:00:00 14.7 6 Sudeste 11 Sudeste 0 -- -- 80
2020-04-07 03:00:00 15.5 0 Calma 6 Oeste 0 -- -- 86
2020-04-07 02:00:00 15.7 4 Oeste 8 Sudoeste 0 -- -- 86
2020-04-07 01:00:00 15.7 4 Sudoeste 10 Sur 0 -- -- 85
2020-04-07 00:00:00 16.1 7 Sudoeste 14 Sudoeste 0 -- -- 84
2020-04-06 23:00:00 17.3 3 Sudeste 13 Oeste 0 -- -- 83
2020-04-06 22:00:00 17.8 0 Calma 8 Norte 0 -- -- 80
2020-04-06 21:00:00 18.8 2 Norte 6 Oeste 0 -- -- 72
2020-04-06 20:00:00 19.8 3 Sur 9 Nordeste 0 -- -- 66
2020-04-06 19:00:00 19.3 2 Este 7 Nordeste 0 -- -- 69
2020-04-06 18:00:00 18.5 0 Calma 8 Norte 0 -- -- 77
2020-04-06 17:00:00 18.2 4 Norte 9 Oeste 0 -- -- 78
2020-04-06 16:00:00 17.2 11 Oeste 21 Oeste 0 -- -- 81
2020-04-06 15:00:00 18.7 10 Oeste 18 Oeste 0 -- -- 69
2020-04-06 14:00:00 18.6 3 Nordeste 13 Oeste 0 -- -- 64
2020-04-06 13:00:00 18.1 6 Noroeste 13 Oeste 0 -- -- 65
2020-04-06 12:00:00 18.6 8 Noroeste 15 Oeste 0 -- -- 61
2020-04-06 11:00:00 17.1 9 Sudeste 22 Sudeste 0 -- -- 62
2020-04-06 10:00:00 15.3 10 Sudeste 20 Sudeste 0 -- -- 65
2020-04-06 09:00:00 14.1 11 Sudeste 28 Sudeste 0 -- -- 67
2020-04-06 08:00:00 13.6 20 Sudeste 30 Sudeste 0 -- -- 67
2020-04-06 07:00:00 13.4 19 Sudeste 27 Sudeste 0 -- -- 68
2020-04-06 06:00:00 13.4 15 Sudeste 27 Sudeste 0 -- -- 69
2020-04-06 05:00:00 13.8 9 Sudeste 20 Este 0 -- -- 67
2020-04-06 04:00:00 13.3 16 Sudeste 29 Sudeste 0 -- -- 70
2020-04-06 03:00:00 13.4 17 Sudeste 25 Sudeste 0 -- -- 73
2020-04-06 02:00:00 13.8 12 Sudeste 20 Sudeste 0 -- -- 72
2020-04-06 01:00:00 13.7 6 Sudeste 23 Sudeste 0 -- -- 71
2020-04-06 00:00:00 14.1 14 Sudeste 31 Sudeste 0 -- -- 69
2020-04-05 23:00:00 15.1 11 Sudeste 25 Sudeste 0 -- -- 67
2020-04-05 22:00:00 15.7 12 Sudeste 21 Sudeste 0 -- -- 65
2020-04-05 21:00:00 17.4 10 Sudeste 20 Sur 0 -- -- 60
2020-04-05 20:00:00 19 12 Sur 22 Sur 0 -- -- 55
2020-04-05 19:00:00 20.1 10 Sudeste 26 Sudeste 0 -- -- 50
2020-04-05 18:00:00 20 15 Sudeste 28 Sudeste 0 -- -- 50
2020-04-05 17:00:00 20.2 19 Sudeste 35 Sudeste 0 -- -- 47
2020-04-05 16:00:00 20.8 21 Sudeste 38 Sudeste 0 -- -- 46
2020-04-05 15:00:00 20.7 20 Sudeste 36 Sudeste 0 -- -- 45
2020-04-05 14:00:00 20.2 22 Sudeste 37 Sudeste 0 -- -- 43
2020-04-05 13:00:00 19.3 18 Sudeste 39 Sudeste 0 -- -- 43
2020-04-05 12:00:00 18.4 18 Sudeste 35 Sudeste 0 -- -- 44
2020-04-05 11:00:00 16.9 19 Sudeste 35 Sudeste 0 -- -- 47
2020-04-05 10:00:00 15 18 Sudeste 43 Sudeste 0 -- -- 50
2020-04-05 09:00:00 13.6 18 Sudeste 36 Este 0 -- -- 54
2020-04-05 08:00:00 13.1 20 Sudeste 36 Sudeste 0 -- -- 58
2020-04-05 07:00:00 13.2 21 Sudeste 36 Sudeste 0 -- -- 63
2020-04-05 06:00:00 13.3 19 Sudeste 39 Sudeste 0 -- -- 62
2020-04-05 05:00:00 13.6 19 Sudeste 35 Sudeste 0 -- -- 61
2020-04-05 04:00:00 13.8 20 Sudeste 40 Sudeste 0 -- -- 60
2020-04-05 03:00:00 13.9 22 Sudeste 46 Sudeste 0 -- -- 61
2020-04-05 02:00:00 14.1 24 Sudeste 50 Sudeste 0 -- -- 62
2020-04-05 01:00:00 14.5 26 Sudeste 53 Sudeste 0 -- -- 57
2020-04-05 00:00:00 14.9 26 Sudeste 47 Sudeste 0 -- -- 51
2020-04-04 23:00:00 15.1 24 Sudeste 46 Sudeste 0 -- -- 51
2020-04-04 22:00:00 15.2 25 Sudeste 54 Sudeste 0 -- -- 51
2020-04-04 21:00:00 15.7 21 Sudeste 53 Sur 0 -- -- 51
2020-04-04 20:00:00 16.3 24 Sudeste 44 Sudeste 0 -- -- 50
2020-04-04 19:00:00 16.5 27 Sudeste 46 Sur 0 -- -- 50
2020-04-04 18:00:00 16 27 Sudeste 54 Sudeste 0 -- -- 54
2020-04-04 17:00:00 14.8 29 Sudeste 63 Sudeste 0 -- -- 61
2020-04-04 16:00:00 14.6 35 Sudeste 66 Sur 0 -- -- 60
2020-04-04 15:00:00 16.2 29 Sudeste 63 Sudeste 0 -- -- 50
2020-04-04 14:00:00 16.7 37 Sudeste 71 Sudeste 0 -- -- 46
2020-04-04 13:00:00 16.6 27 Sudeste 57 Sudeste 0 -- -- 44
2020-04-04 12:00:00 16.3 31 Sudeste 61 Sudeste 0 -- -- 48
2020-04-04 11:00:00 15.2 31 Sudeste 67 Sudeste 0 -- -- 51
2020-04-04 10:00:00 14.5 32 Sudeste 71 Sudeste 0 -- -- 55
2020-04-04 09:00:00 13.7 29 Sudeste 54 Sudeste 0 -- -- 57
2020-04-04 08:00:00 12.9 23 Sudeste 48 Sudeste 0 -- -- 60
2020-04-04 07:00:00 12.7 19 Sudeste 44 Sudeste 0 -- -- 65
2020-04-04 06:00:00 12.7 17 Sudeste 40 Sudeste 0 -- -- 63
2020-04-04 05:00:00 12.7 19 Sudeste 45 Sudeste 0 -- -- 64
2020-04-04 04:00:00 12.3 19 Sudeste 39 Sur 0 -- -- 69
2020-04-04 03:00:00 12 14 Este 33 Este 0 -- -- 73
2020-04-04 02:00:00 12.2 10 Este 27 Este 0 -- -- 73
2020-04-04 01:00:00 12.3 14 Sudeste 32 Sudeste 0 -- -- 74
2020-04-04 00:00:00 12.7 17 Sudeste 41 Sudeste 0 -- -- 71
2020-04-03 23:00:00 13.2 17 Sudeste 33 Sudeste 0 -- -- 65
2020-04-03 22:00:00 14.1 18 Sudeste 35 Sudeste 0 -- -- 59
2020-04-03 21:00:00 15.2 15 Sudeste 34 Sudeste 0 -- -- 61
2020-04-03 20:00:00 17 19 Sudeste 35 Sudeste 0 -- -- 52
2020-04-03 19:00:00 18.6 18 Sudeste 34 Sudeste 0 -- -- 47
2020-04-03 18:00:00 19.6 15 Sur 30 Sur 0 -- -- 46
2020-04-03 17:00:00 19.2 6 Sudeste 15 Norte 0 -- -- 47
2020-04-03 16:00:00 19.4 7 Este 17 Este 0 -- -- 51
2020-04-03 15:00:00 18.7 6 Nordeste 18 Nordeste 0 -- -- 55
2020-04-03 14:00:00 17.4 5 Noroeste 13 Nordeste 0 -- -- 58
2020-04-03 13:00:00 16.4 6 Noroeste 13 Oeste 0 -- -- 60
2020-04-03 12:00:00 15.7 6 Oeste 11 Sudoeste 0 -- -- 62
2020-04-03 11:00:00 14.4 3 Oeste 12 Sudeste 0 -- -- 62
2020-04-03 10:00:00 12.6 7 Sudeste 16 Este 0 -- -- 69
2020-04-03 09:00:00 10.5 9 Este 15 Sudeste 0 -- -- 74
2020-04-03 08:00:00 9.8 2 Este 4 Sudeste 0 -- -- 76
2020-04-03 07:00:00 10.7 0 Calma 8 Sudeste 0 -- -- 72
2020-04-03 06:00:00 11.1 5 Sudeste 8 Sudeste 0 -- -- 71
2020-04-03 05:00:00 11.2 4 Sudeste 11 Sur 0 -- -- 72
2020-04-03 04:00:00 11.1 6 Sur 12 Sur 0 -- -- 74
2020-04-03 03:00:00 11 6 Sur 14 Sur 0 -- -- 78
2020-04-03 02:00:00 10.9 6 Sur 14 Sur 0 -- -- 78
2020-04-03 01:00:00 10.7 6 Sur 14 Sur 0 -- -- 79
2020-04-03 00:00:00 10.7 7 Sur 14 Sur 0 -- -- 79
2020-04-02 23:00:00 11.1 4 Sur 8 Sudoeste 0 -- -- 77
2020-04-02 22:00:00 11.7 5 Sudoeste 9 Oeste 0 -- -- 73
2020-04-02 21:00:00 13 4 Noroeste 9 Noroeste 0 -- -- 67
2020-04-02 20:00:00 13.4 6 Noroeste 19 Noroeste 0 -- -- 63
2020-04-02 19:00:00 14 14 Noroeste 21 Noroeste 0 -- -- 58
2020-04-02 18:00:00 13.4 5 Norte 13 Nordeste 0 -- -- 68
2020-04-02 17:00:00 11.8 4 Nordeste 20 Este 0.2 -- -- 75
2020-04-02 16:00:00 11.3 9 Noroeste 29 Oeste 0 -- -- 79
2020-04-02 15:00:00 12.8 19 Oeste 32 Oeste 0 -- -- 69
2020-04-02 14:00:00 11.4 19 Noroeste 30 Oeste 0 -- -- 78
2020-04-02 13:00:00 11.9 12 Oeste 19 Oeste 0 -- -- 69
2020-04-02 12:00:00 11.5 6 Noroeste 12 Noroeste 0 -- -- 71
2020-04-02 11:00:00 11.1 5 Oeste 14 Sudoeste 0 -- -- 71
2020-04-02 10:00:00 11.1 10 Sudoeste 15 Sudoeste 0 -- -- 73
2020-04-02 09:00:00 9.4 5 Sur 13 Sur 0 -- -- 74
2020-04-02 08:00:00 9.3 5 Sudeste 20 Sur 0.2 -- -- 76
2020-04-02 07:00:00 10.2 16 Sudeste 34 Sudeste 0.8 -- -- 59
2020-04-02 06:00:00 9.7 6 Oeste 13 Oeste 4.6 -- -- 89
2020-04-02 05:00:00 10.5 8 Sur 18 Sur 0 -- -- 81
2020-04-02 04:00:00 10.2 8 Sur 15 Sur 1.2 -- -- 84
2020-04-02 03:00:00 10.7 10 Sudoeste 21 Sudoeste 1.4 -- -- 82
2020-04-02 02:00:00 11.5 6 Sur 17 Sudeste 0.2 -- -- 75
2020-04-02 01:00:00 11.3 10 Sur 17 Sur 0.2 -- -- 76
2020-04-02 00:00:00 11.3 6 Sur 18 Sudeste 0 -- -- 79
2020-04-01 23:00:00 11.1 8 Sur 14 Sur 0 -- -- 77
2020-04-01 22:00:00 11.2 5 Sur 12 Sur 0 -- -- 77
2020-04-01 21:00:00 11.3 5 Sudoeste 16 Oeste 0 -- -- 79
2020-04-01 20:00:00 10.8 9 Oeste 41 Oeste 1.6 -- -- 86
2020-04-01 19:00:00 14.1 15 Oeste 34 Oeste 0 -- -- 63
2020-04-01 18:00:00 14.2 21 Oeste 48 Oeste 0.2 -- -- 70
2020-04-01 17:00:00 15.2 24 Oeste 38 Oeste 0 -- -- 62
2020-04-01 16:00:00 16.6 21 Oeste 40 Oeste 0 -- -- 48
2020-04-01 15:00:00 16.3 18 Oeste 39 Oeste 0 -- -- 50
2020-04-01 14:00:00 15.4 11 Sudoeste 23 Sudoeste 0 -- -- 49
2020-04-01 13:00:00 13.8 9 Sudoeste 20 Oeste 0 -- -- 60
2020-04-01 12:00:00 12.9 10 Oeste 19 Oeste 0 -- -- 64
2020-04-01 11:00:00 12.1 6 Oeste 13 Noroeste 0 -- -- 72
2020-04-01 10:00:00 10.7 5 Sudoeste 8 Sudoeste 0 -- -- 85
2020-04-01 09:00:00 9.8 5 Sudoeste 12 Oeste 0 -- -- 90
2020-04-01 08:00:00 10.2 5 Sudoeste 10 Sudoeste 0 -- -- 87
2020-04-01 07:00:00 10.1 5 Sudoeste 9 Sur 0 -- -- 86
2020-04-01 06:00:00 10.2 5 Sur 12 Sudoeste 0 -- -- 87
2020-04-01 05:00:00 10.6 5 Sur 9 Sudoeste 0 -- -- 87
2020-04-01 04:00:00 10.8 6 Sur 14 Oeste 0 -- -- 89
2020-04-01 03:00:00 11.3 8 Oeste 13 Oeste 0 -- -- 90
2020-04-01 02:00:00 11.5 8 Oeste 13 Sudoeste 0 -- -- 90
2020-04-01 01:00:00 11.9 4 Sudoeste 14 Sudoeste 0 -- -- 88
2020-04-01 00:00:00 12.4 5 Sudoeste 12 Oeste 0.6 -- -- 91
2020-03-31 23:00:00 12.7 6 Sudoeste 15 Sudoeste 0.8 -- -- 87
2020-03-31 22:00:00 13.2 9 Sudoeste 19 Sur 0 -- -- 83
2020-03-31 21:00:00 13.5 9 Sudoeste 30 Sudoeste 0.2 -- -- 83
2020-03-31 20:00:00 14.2 13 Sudoeste 25 Sudoeste 0.2 -- -- 83
2020-03-31 19:00:00 14.6 15 Sudoeste 40 Sudoeste 1.8 -- -- 81
2020-03-31 18:00:00 17.5 23 Sudoeste 36 Sudoeste 0 -- -- 66
2020-03-31 17:00:00 16.6 23 Sudoeste 40 Oeste 0.4 -- -- 75
2020-03-31 16:00:00 18.1 14 Sudoeste 40 Sudoeste 0 -- -- 62
2020-03-31 15:00:00 17.8 22 Sudoeste 41 Sudoeste 0 -- -- 60
2020-03-31 14:00:00 14.6 10 Oeste 39 Oeste 0 -- -- 79
2020-03-31 13:00:00 16.9 12 Oeste 30 Sudoeste 0 -- -- 67
2020-03-31 12:00:00 16 15 Sudoeste 33 Sudoeste 0 -- -- 68
2020-03-31 11:00:00 14.3 10 Sur 19 Sur 0 -- -- 76
2020-03-31 10:00:00 12.4 9 Sur 23 Sur 0 -- -- 83
2020-03-31 09:00:00 11.8 12 Sur 29 Sudeste 0.4 -- -- 82
2020-03-31 08:00:00 11.4 15 Sudeste 24 Sudeste 3.2 -- -- 88
2020-03-31 07:00:00 12.1 10 Sur 31 Sudeste 1.4 -- -- 83
2020-03-31 06:00:00 12.3 13 Sudeste 30 Sudeste 0 -- -- 80
2020-03-31 05:00:00 12.5 16 Sur 30 Sur 0 -- -- 77
2020-03-31 04:00:00 11.6 13 Sudeste 26 Sudeste 6.2 -- -- 90
2020-03-31 03:00:00 11.4 6 Nordeste 20 Este 4.4 -- -- 91
2020-03-31 02:00:00 11.5 8 Este 17 Este 7.2 -- -- 91
2020-03-31 01:00:00 11.5 7 Sur 20 Sudeste 4.8 -- -- 91
2020-03-31 00:00:00 11.3 10 Sudeste 21 Sudeste 2 -- -- 92
2020-03-30 23:00:00 11.2 9 Sudeste 22 Este 1.2 -- -- 92
2020-03-30 22:00:00 10.8 5 Nordeste 19 Nordeste 0.8 -- -- 86
2020-03-30 21:00:00 11.2 9 Nordeste 26 Noroeste 0 -- -- 87
2020-03-30 20:00:00 13.5 19 Noroeste 29 Noroeste 0 -- -- 81
2020-03-30 19:00:00 14.2 8 Oeste 35 Oeste 0 -- -- 72
2020-03-30 18:00:00 15.2 28 Oeste 40 Oeste 0 -- -- 71
2020-03-30 17:00:00 17.4 16 Sudoeste 33 Oeste 0 -- -- 49
2020-03-30 16:00:00 17.7 9 Oeste 17 Oeste 0 -- -- 53
2020-03-30 15:00:00 17.1 4 Norte 16 Noroeste 0 -- -- 57
2020-03-30 14:00:00 16.6 3 Oeste 14 Oeste 0 -- -- 58
2020-03-30 13:00:00 15.6 3 Norte 14 Sudoeste 0 -- -- 61
2020-03-30 12:00:00 14.4 7 Oeste 13 Oeste 0 -- -- 68
2020-03-30 11:00:00 13.7 2 Oeste 9 Oeste 0 -- -- 72
2020-03-30 10:00:00 13.1 5 Sudoeste 8 Sudoeste 0 -- -- 78
2020-03-30 09:00:00 12.3 3 Sur 6 Sudeste 0 -- -- 82
2020-03-30 08:00:00 12.1 3 Sudoeste 8 Sudoeste 0 -- -- 83
2020-03-30 07:00:00 12.2 5 Sudoeste 9 Sudoeste 0 -- -- 84
2020-03-30 06:00:00 12.2 3 Sur 6 Sur 0 -- -- 86
2020-03-30 05:00:00 12.4 3 Sur 7 Sudoeste 0 -- -- 86
2020-03-30 04:00:00 12.7 4 Sudoeste 9 Sudoeste 0 -- -- 86
2020-03-30 03:00:00 12.5 6 Oeste 14 Sudoeste 0 -- -- 86
2020-03-30 02:00:00 12.9 9 Oeste 14 Oeste 0.2 -- -- 85
2020-03-30 01:00:00 13.6 8 Oeste 17 Oeste 0 -- -- 83
2020-03-30 00:00:00 14.5 10 Oeste 15 Oeste 0 -- -- 76
2020-03-29 23:00:00 15.4 6 Oeste 14 Sudoeste 0 -- -- 71
2020-03-29 22:00:00 15.8 7 Oeste 16 Sudoeste 0 -- -- 69
2020-03-29 21:00:00 16.6 12 Sudoeste 21 Sudoeste 0 -- -- 62
2020-03-29 20:00:00 17.5 6 Oeste 13 Oeste 0 -- -- 55
2020-03-29 19:00:00 18.5 10 Oeste 15 Oeste 0 -- -- 49
2020-03-29 18:00:00 18.8 7 Noroeste 14 Oeste 0 -- -- 46
2020-03-29 17:00:00 19.2 3 Oeste 13 Nordeste 0 -- -- 45
2020-03-29 16:00:00 19.5 5 Este 17 Norte 0 -- -- 43
2020-03-29 15:00:00 18.7 5 Norte 14 Norte 0 -- -- 49
2020-03-29 14:00:00 18.3 6 Nordeste 14 Nordeste 0 -- -- 52
2020-03-29 13:00:00 17 5 Nordeste 17 Oeste 0 -- -- 56
2020-03-29 12:00:00 16.3 4 Sudeste 14 Sudeste 0 -- -- 58
2020-03-29 11:00:00 14.4 4 Noroeste 9 Noroeste 0 -- -- 67
2020-03-29 10:00:00 13.5 3 Sudeste 5 Sudeste 0 -- -- 70
2020-03-29 09:00:00 11.1 5 Sudeste 7 Sudeste 0 -- -- 77
2020-03-29 08:00:00 11.1 5 Sudeste 6 Sudeste 0 -- -- 76
2020-03-29 07:00:00 11.6 4 Sudeste 6 Sudeste 0 -- -- 75
2020-03-29 06:00:00 11.8 6 Sudeste 10 Sudeste 0 -- -- 73
2020-03-29 05:00:00 11.7 4 Este 6 Sudeste 0 -- -- 73
2020-03-29 03:00:00 12.1 5 Sudeste 17 Sudeste 0 -- -- 72
2020-03-29 01:00:00 12.1 7 Sudeste 14 Sudeste 0 -- -- 71
2020-03-29 00:00:00 12.1 10 Sudeste 20 Este 0 -- -- 71
2020-03-28 23:00:00 12.3 10 Sudeste 15 Este 0 -- -- 71
2020-03-28 22:00:00 12.4 11 Sudeste 18 Sudeste 0 -- -- 72
2020-03-28 21:00:00 13 12 Sudeste 18 Sudeste 0 -- -- 70
2020-03-28 20:00:00 13.8 12 Sudeste 19 Sudeste 0 -- -- 67
2020-03-28 19:00:00 15.6 11 Sudeste 21 Sudeste 0 -- -- 61
2020-03-28 18:00:00 16.9 10 Sur 20 Sudeste 0 -- -- 57
2020-03-28 17:00:00 16.8 12 Sudeste 26 Sudeste 0 -- -- 58
2020-03-28 16:00:00 16 12 Sudeste 34 Sudeste 0 -- -- 61
2020-03-28 15:00:00 15.1 16 Sudeste 35 Sur 0 -- -- 65
2020-03-28 14:00:00 16.3 16 Sur 37 Sudeste 0 -- -- 60
2020-03-28 13:00:00 17.4 6 Este 28 Sudeste 0 -- -- 53
2020-03-28 12:00:00 17 10 Sudeste 26 Sudeste 0 -- -- 55
2020-03-28 11:00:00 15.3 13 Sudeste 26 Sudeste 0 -- -- 61
2020-03-28 10:00:00 14.1 7 Sudeste 23 Sudeste 0 -- -- 70
2020-03-28 09:00:00 11.7 9 Sudeste 19 Sudeste 0 -- -- 78
2020-03-28 08:00:00 9.9 7 Sudeste 15 Este 0 -- -- 86
2020-03-28 07:00:00 9 0 Calma 8 Oeste 0 -- -- 82
2020-03-28 06:00:00 10 4 Sur 6 Sur 0 -- -- 80
2020-03-28 05:00:00 10.1 3 Este 7 Este 0 -- -- 80
2020-03-28 04:00:00 10.4 0 Calma 6 Sudeste 0 -- -- 79
2020-03-28 03:00:00 10.3 0 Calma 6 Sudeste 0 -- -- 79
2020-03-28 02:00:00 10.5 3 Sudeste 9 Sudeste 0 -- -- 78
2020-03-28 01:00:00 10.5 2 Sudeste 4 Nordeste 0 -- -- 78
2020-03-28 00:00:00 10.5 2 Nordeste 5 Norte 0 -- -- 78
2020-03-27 23:00:00 11.3 3 Norte 5 Norte 0 -- -- 76
2020-03-27 22:00:00 12.1 3 Oeste 8 Oeste 0 -- -- 73
2020-03-27 21:00:00 12.7 3 Sudoeste 11 Oeste 0 -- -- 70
2020-03-27 20:00:00 13.5 9 Oeste 27 Oeste 0 -- -- 66
2020-03-27 19:00:00 15.8 17 Oeste 31 Oeste 0 -- -- 59
2020-03-27 18:00:00 17 19 Oeste 32 Oeste 0 -- -- 51
2020-03-27 17:00:00 17.6 23 Oeste 42 Oeste 0 -- -- 49
2020-03-27 16:00:00 17.9 26 Oeste 41 Oeste 0 -- -- 48
2020-03-27 15:00:00 17.9 22 Oeste 41 Oeste 0 -- -- 52
2020-03-27 14:00:00 16.9 22 Oeste 48 Oeste 0 -- -- 55
2020-03-27 13:00:00 15.7 25 Sudoeste 40 Sudoeste 0 -- -- 59
2020-03-27 12:00:00 15.2 19 Sudoeste 32 Sudoeste 0 -- -- 57
2020-03-27 11:00:00 13.4 21 Sudoeste 35 Sudoeste 0 -- -- 63
2020-03-27 10:00:00 12.5 20 Sudoeste 28 Oeste 0 -- -- 72
2020-03-27 09:00:00 11.3 8 Oeste 17 Oeste 0 -- -- 80
2020-03-27 08:00:00 9.6 0 Calma 11 Sudoeste 0 -- -- 84
2020-03-27 07:00:00 9.9 5 Sudoeste 12 Sur 0 -- -- 83
2020-03-27 06:00:00 10.5 8 Sur 14 Sudoeste 0 -- -- 82
2020-03-27 05:00:00 10.8 6 Sur 12 Sur 0 -- -- 82
2020-03-27 04:00:00 11.4 6 Sudoeste 15 Sur 0 -- -- 81
2020-03-27 03:00:00 12 6 Sur 12 Sur 0 -- -- 77
2020-03-27 02:00:00 12.4 6 Sur 12 Sur 0 -- -- 75
2020-03-27 01:00:00 12.8 5 Sur 14 Sudoeste 0 -- -- 75
2020-03-27 00:00:00 13.4 7 Sudoeste 19 Sudoeste 0 -- -- 74
2020-03-26 23:00:00 13.7 9 Sudoeste 19 Sudoeste 0 -- -- 72
2020-03-26 22:00:00 14.2 14 Sudoeste 25 Sudoeste 0 -- -- 69
2020-03-26 21:00:00 15 15 Sudoeste 32 Sudoeste 0 -- -- 67
2020-03-26 20:00:00 16.2 19 Oeste 33 Sudoeste 0 -- -- 64
2020-03-26 19:00:00 18.2 26 Oeste 40 Oeste 0 -- -- 56
2020-03-26 18:00:00 20 31 Oeste 49 Oeste 0 -- -- 47
2020-03-26 17:00:00 20.8 25 Oeste 44 Oeste 0 -- -- 44
2020-03-26 16:00:00 20.3 27 Oeste 40 Noroeste 0 -- -- 48
2020-03-26 15:00:00 20.1 28 Oeste 43 Oeste 0 -- -- 49
2020-03-26 14:00:00 19.2 27 Oeste 41 Oeste 0 -- -- 58
2020-03-26 13:00:00 17.7 24 Oeste 45 Oeste 0 -- -- 64
2020-03-26 12:00:00 16.3 24 Oeste 34 Oeste 0 -- -- 68
2020-03-26 11:00:00 15.1 23 Oeste 35 Oeste 0 -- -- 75
2020-03-26 10:00:00 13.9 17 Oeste 25 Oeste 0 -- -- 81
2020-03-26 09:00:00 13.3 16 Oeste 24 Sudoeste 0 -- -- 81
2020-03-26 08:00:00 12.4 13 Sudoeste 21 Sudoeste 0 -- -- 83
2020-03-26 07:00:00 12.3 8 Oeste 17 Oeste 0 -- -- 83
2020-03-26 06:00:00 12.2 9 Sudoeste 15 Sudoeste 0 -- -- 81
2020-03-26 05:00:00 12.4 10 Sudoeste 18 Sudoeste 0 -- -- 79
2020-03-26 04:00:00 12.4 8 Sudoeste 14 Sudoeste 0 -- -- 80
2020-03-26 03:00:00 12.1 6 Sudoeste 13 Oeste 0 -- -- 79
2020-03-26 02:00:00 12.2 8 Sudoeste 14 Sudoeste 0 -- -- 79
2020-03-26 01:00:00 12.7 5 Sudoeste 12 Sudoeste 0 -- -- 78
2020-03-26 00:00:00 12.8 6 Sudoeste 14 Sudoeste 0 -- -- 78
2020-03-25 23:00:00 13.4 9 Sudoeste 17 Sudoeste 0 -- -- 77
2020-03-25 22:00:00 14.3 11 Sudoeste 26 Sudoeste 0 -- -- 75
2020-03-25 21:00:00 14.7 9 Sur 19 Sudeste 0 -- -- 71
2020-03-25 20:00:00 15.9 10 Oeste 23 Oeste 0 -- -- 68
2020-03-25 19:00:00 17.3 16 Oeste 28 Oeste 0 -- -- 63
2020-03-25 18:00:00 18.9 17 Oeste 24 Oeste 0 -- -- 56
2020-03-25 17:00:00 18.7 10 Oeste 26 Oeste 0 -- -- 55
2020-03-25 16:00:00 18.6 16 Oeste 29 Oeste 0 -- -- 57
2020-03-25 15:00:00 17.2 12 Oeste 31 Oeste 0 -- -- 61
2020-03-25 14:00:00 17.2 15 Oeste 30 Oeste 0 -- -- 64
2020-03-25 13:00:00 16.1 23 Oeste 35 Oeste 0 -- -- 70
2020-03-25 12:00:00 14.8 16 Oeste 28 Oeste 0 -- -- 77
2020-03-25 11:00:00 14.5 18 Oeste 26 Oeste 0 -- -- 78
2020-03-25 10:00:00 12.8 6 Oeste 10 Oeste 0 -- -- 86
2020-03-25 09:00:00 11.8 4 Noroeste 9 Noroeste 0 -- -- 88
2020-03-25 08:00:00 11.7 4 Oeste 8 Sur 0 -- -- 87
2020-03-25 07:00:00 11 4 Sur 7 Sudoeste 0 -- -- 81
2020-03-25 06:00:00 10.8 3 Oeste 9 Oeste 0 -- -- 84
2020-03-25 05:00:00 11.3 5 Sudoeste 10 Oeste 0 -- -- 84
2020-03-25 04:00:00 12.3 5 Sudoeste 7 Oeste 0 -- -- 89
2020-03-25 03:00:00 11.9 4 Sudoeste 11 Sur 0 -- -- 84
2020-03-25 02:00:00 12.3 6 Sur 12 Sur 0 -- -- 83
2020-03-25 01:00:00 12.2 4 Sudoeste 9 Sur 0 -- -- 82
2020-03-25 00:00:00 13.3 4 Sudoeste 8 Sudoeste 0 -- -- 85
2020-03-24 23:00:00 14.4 3 Sudoeste 8 Sudeste 0 -- -- 79
2020-03-24 22:00:00 15.2 4 Sur 11 Sur 0 -- -- 75
2020-03-24 21:00:00 16.6 3 Este 16 Este 0 -- -- 59
2020-03-24 20:00:00 16.7 9 Nordeste 14 Este 0 -- -- 57
2020-03-24 19:00:00 17.7 8 Nordeste 25 Nordeste 0 -- -- 55
2020-03-24 18:00:00 19 14 Nordeste 24 Norte 0 -- -- 51
2020-03-24 17:00:00 19.3 11 Norte 22 Noroeste 0 -- -- 52
2020-03-24 16:00:00 19 8 Norte 17 Nordeste 0 -- -- 56
2020-03-24 15:00:00 18.4 6 Norte 18 Norte 0 -- -- 58
2020-03-24 14:00:00 17.8 9 Nordeste 19 Norte 0 -- -- 59
2020-03-24 13:00:00 16.9 6 Nordeste 17 Este 0 -- -- 61
2020-03-24 12:00:00 15.4 7 Nordeste 19 Nordeste 0 -- -- 68
2020-03-24 11:00:00 13.4 6 Nordeste 15 Nordeste 0 -- -- 74
2020-03-24 10:00:00 12.4 5 Nordeste 11 Norte 0 -- -- 79
2020-03-24 09:00:00 11 5 Este 15 Nordeste 0 -- -- 87
2020-03-24 08:00:00 9.8 3 Nordeste 9 Nordeste 0.2 -- -- 92
2020-03-24 07:00:00 9.2 0 Calma 4 Sur 0 -- -- 92
2020-03-24 06:00:00 9.1 2 Norte 4 Nordeste 0 -- -- 92
2020-03-24 05:00:00 8.9 0 Calma 10 Nordeste 0 -- -- 90
2020-03-24 04:00:00 9.3 4 Nordeste 9 Nordeste 0 -- -- 89
2020-03-24 03:00:00 9.4 2 Nordeste 6 Nordeste 0 -- -- 88
2020-03-24 02:00:00 9.4 3 Norte 11 Sudeste 0 -- -- 87
2020-03-24 01:00:00 9.7 2 Nordeste 10 Este 0 -- -- 85
2020-03-24 00:00:00 10.4 4 Este 18 Este 0 -- -- 81
2020-03-23 23:00:00 10.6 0 Calma 8 Este 0 -- -- 83
2020-03-23 22:00:00 11.1 3 Este 22 Este 0 -- -- 81
2020-03-23 21:00:00 11 14 Este 29 Sudeste 0.2 -- -- 82
2020-03-23 20:00:00 11.5 8 Este 25 Sudeste 0.2 -- -- 80
2020-03-23 19:00:00 13.5 16 Sudeste 35 Sudeste 0 -- -- 63
2020-03-23 18:00:00 14.8 17 Sudeste 32 Sudeste 0 -- -- 58
2020-03-23 17:00:00 14.8 16 Sudeste 33 Sudeste 0 -- -- 57
2020-03-23 16:00:00 16.3 17 Sudeste 30 Sudeste 0 -- -- 51
2020-03-23 15:00:00 15.6 7 Este 21 Sudeste 0.4 -- -- 58
2020-03-23 14:00:00 16.3 8 Este 20 Sudeste 0 -- -- 51
2020-03-23 13:00:00 15.4 10 Este 19 Este 0 -- -- 54
2020-03-23 12:00:00 14.4 8 Este 22 Este 0 -- -- 59
2020-03-23 11:00:00 13.4 13 Sudeste 29 Este 0 -- -- 61
2020-03-23 10:00:00 12.1 10 Sudeste 22 Sudeste 0 -- -- 74
2020-03-23 09:00:00 10.2 9 Este 22 Sudeste 0 -- -- 80
2020-03-23 08:00:00 8.6 10 Sudeste 18 Sudeste 0 -- -- 83
2020-03-23 07:00:00 8.8 4 Sudeste 12 Sudeste 0 -- -- 83
2020-03-23 06:00:00 9.1 6 Sudeste 11 Sudeste 0 -- -- 81
2020-03-23 05:00:00 9.1 8 Sudeste 14 Sudeste 0 -- -- 81
2020-03-23 04:00:00 9.1 8 Este 12 Sudeste 0 -- -- 82
2020-03-23 03:00:00 9.5 2 Este 5 Sur 0 -- -- 80
2020-03-23 02:00:00 9.7 3 Sudeste 6 Sudeste 0 -- -- 80
2020-03-23 01:00:00 9.9 4 Sudeste 6 Sudeste 0 -- -- 79
2020-03-23 00:00:00 10.1 5 Sudeste 8 Sudeste 0 -- -- 78
2020-03-22 23:00:00 10.5 5 Sudeste 8 Sudeste 0 -- -- 77
2020-03-22 22:00:00 10.7 5 Sudeste 6 Sudeste 0 -- -- 77
2020-03-22 21:00:00 11.3 4 Sudeste 5 Sudeste 0 -- -- 74
2020-03-22 20:00:00 12.3 2 Sudoeste 6 Sudoeste 0 -- -- 69
2020-03-22 19:00:00 13.7 4 Sudoeste 9 Sudoeste 0 -- -- 62
2020-03-22 18:00:00 13.4 4 Oeste 16 Oeste 0 -- -- 65
2020-03-22 17:00:00 13.3 6 Noroeste 15 Oeste 0 -- -- 68
2020-03-22 16:00:00 12.7 5 Nordeste 13 Norte 0 -- -- 70
2020-03-22 15:00:00 10.8 3 Noroeste 14 Oeste 1 -- -- 80
2020-03-22 14:00:00 9.3 6 Sudeste 18 Sudeste 9.8 -- -- 82
2020-03-22 13:00:00 13.2 6 Nordeste 17 Norte 0 -- -- 68
2020-03-22 12:00:00 12.7 5 Norte 13 Norte 0 -- -- 72
2020-03-22 11:00:00 12 0 Calma 9 Noroeste 0 -- -- 69
2020-03-22 10:00:00 10.8 2 Oeste 4 Noroeste 0 -- -- 80
2020-03-22 09:00:00 9.6 3 Oeste 4 Oeste 0 -- -- 85
2020-03-22 08:00:00 8.8 0 Calma 3 Oeste 0 -- -- 86
2020-03-22 07:00:00 9 0 Calma 9 Sudeste 0 -- -- 83
2020-03-22 06:00:00 9.4 3 Sudeste 5 Sudeste 0 -- -- 82
2020-03-22 05:00:00 9.4 4 Sudeste 14 Sudeste 0 -- -- 80
2020-03-22 04:00:00 9.6 8 Sudeste 14 Sudeste 0.2 -- -- 79
2020-03-22 03:00:00 9.7 6 Sudeste 13 Sudeste 0.2 -- -- 82
2020-03-22 02:00:00 9.2 0 Calma 10 Norte 0.8 -- -- 87
2020-03-22 01:00:00 9.8 6 Sudeste 23 Sudoeste 0.8 -- -- 79
2020-03-22 00:00:00 10.1 12 Sudeste 20 Sur 0 -- -- 77
2020-03-21 23:00:00 9.5 11 Sudeste 19 Sudeste 0 -- -- 77
2020-03-21 22:00:00 9.6 9 Sudeste 22 Sudeste 0 -- -- 76
2020-03-21 21:00:00 9.3 11 Sudeste 18 Sudeste 1 -- -- 84
2020-03-21 20:00:00 10.3 8 Sudoeste 26 Oeste 3 -- -- 83
2020-03-21 19:00:00 12.8 14 Sudoeste 35 Sudoeste 0 -- -- 68
2020-03-21 18:00:00 13.4 15 Sudoeste 30 Sur 0 -- -- 62
2020-03-21 17:00:00 12.9 17 Sudeste 35 Sur 0 -- -- 67
2020-03-21 16:00:00 11.9 15 Sudeste 25 Sudeste 0.2 -- -- 72
2020-03-21 15:00:00 12 11 Sudoeste 32 Sudoeste 0.6 -- -- 76
2020-03-21 14:00:00 13.9 22 Sudoeste 40 Sudoeste 0 -- -- 58
2020-03-21 13:00:00 15.1 12 Sudoeste 24 Oeste 0 -- -- 56
2020-03-21 12:00:00 13.9 10 Sur 23 Sudoeste 0 -- -- 63
2020-03-21 11:00:00 12.9 11 Sudoeste 21 Sudoeste 0 -- -- 69
2020-03-21 10:00:00 12.3 12 Sudoeste 17 Sudoeste 0 -- -- 75
2020-03-21 09:00:00 10.8 6 Sur 12 Sur 0.4 -- -- 81
2020-03-21 08:00:00 9.8 6 Sur 11 Sur 0 -- -- 87
2020-03-21 07:00:00 9.9 3 Sudoeste 8 Sur 0 -- -- 88
2020-03-21 06:00:00 10 5 Sudoeste 13 Sudoeste 0 -- -- 89
2020-03-21 05:00:00 10.2 9 Sudoeste 15 Oeste 0.6 -- -- 90
2020-03-21 04:00:00 10.3 6 Sur 17 Sudoeste 5.8 -- -- 89
2020-03-21 03:00:00 10.5 10 Sudoeste 23 Oeste 10.2 -- -- 90
2020-03-21 02:00:00 11.9 19 Oeste 41 Oeste 3.4 -- -- 86
2020-03-21 01:00:00 14.3 24 Sur 43 Sudeste 0 -- -- 71
2020-03-21 00:00:00 14.2 8 Sudeste 40 Sudeste 0 -- -- 73
2020-03-20 23:00:00 14.3 20 Sudeste 46 Sur 0 -- -- 73
2020-03-20 22:00:00 14.4 23 Sudeste 46 Sudeste 0 -- -- 72
2020-03-20 21:00:00 14.9 22 Sudeste 53 Sur 0 -- -- 68
2020-03-20 20:00:00 16.1 20 Sudeste 35 Sudeste 0 -- -- 59
2020-03-20 19:00:00 17.2 18 Sudeste 38 Sudeste 0 -- -- 58
2020-03-20 18:00:00 18.3 13 Sudeste 28 Sudeste 0 -- -- 54
2020-03-20 17:00:00 18.1 11 Sudeste 30 Sudeste 0 -- -- 53
2020-03-20 16:00:00 18 21 Sudeste 32 Sudeste 0 -- -- 54
2020-03-20 15:00:00 17.3 19 Sudeste 31 Sudeste 0 -- -- 57
2020-03-20 14:00:00 18.5 14 Sudeste 29 Sudeste 0.2 -- -- 53
2020-03-20 13:00:00 17.7 14 Sudeste 27 Sudeste 0 -- -- 58
2020-03-20 12:00:00 14.5 9 Sur 34 Sudeste 0.2 -- -- 71
2020-03-20 11:00:00 15.7 15 Sudeste 33 Sudeste 0 -- -- 61
2020-03-20 10:00:00 14.4 14 Sudeste 37 Sudeste 0 -- -- 66
2020-03-20 09:00:00 13.6 17 Sudeste 32 Sudeste 0 -- -- 72
2020-03-20 08:00:00 12.9 12 Sudeste 34 Sudeste 0 -- -- 73
2020-03-20 07:00:00 12 6 Este 20 Sudeste 0 -- -- 75
2020-03-20 06:00:00 12.2 12 Sudeste 21 Sudeste 0 -- -- 72
2020-03-20 05:00:00 12.4 9 Sudeste 22 Sudeste 0 -- -- 74
2020-03-20 04:00:00 13.6 4 Sudeste 15 Sur 0 -- -- 71
2020-03-20 03:00:00 14.3 9 Sudeste 18 Sudeste 0 -- -- 69
2020-03-20 02:00:00 14.2 7 Sudeste 15 Sudeste 0 -- -- 70
2020-03-20 01:00:00 14.5 7 Sudeste 20 Sudeste 0 -- -- 70
2020-03-20 00:00:00 14.3 3 Oeste 7 Este 0 -- -- 71
2020-03-19 23:00:00 14.3 4 Este 21 Sudeste 0 -- -- 70
2020-03-19 22:00:00 14.3 13 Sudeste 32 Sudeste 0 -- -- 71
2020-03-19 21:00:00 14.7 16 Sudeste 30 Sudeste 0 -- -- 69
2020-03-19 20:00:00 15.4 13 Sudeste 32 Sudeste 0 -- -- 65
2020-03-19 19:00:00 16 19 Sudeste 37 Sudeste 0 -- -- 63
2020-03-19 18:00:00 16.8 21 Sudeste 44 Sudeste 0 -- -- 61
2020-03-19 17:00:00 17.6 24 Sudeste 42 Sudeste 0 -- -- 58
2020-03-19 16:00:00 17.7 22 Sudeste 40 Sudeste 0 -- -- 57
2020-03-19 15:00:00 18.1 20 Sudeste 40 Sudeste 0 -- -- 56
2020-03-19 14:00:00 18 22 Sudeste 51 Sudeste 0 -- -- 59
2020-03-19 13:00:00 18.1 21 Sudeste 43 Este 0 -- -- 56
2020-03-19 12:00:00 17.2 18 Sudeste 37 Sudeste 0 -- -- 62
2020-03-19 11:00:00 16.4 18 Este 40 Sudeste 0 -- -- 64
2020-03-19 10:00:00 15.3 19 Este 35 Este 0 -- -- 67
2020-03-19 09:00:00 14.2 14 Este 30 Este 0 -- -- 71
2020-03-19 08:00:00 13.7 16 Este 41 Sudeste 0 -- -- 71
2020-03-19 07:00:00 13.4 12 Este 26 Sudeste 0 -- -- 73
2020-03-19 06:00:00 13.5 7 Este 13 Este 0 -- -- 70
2020-03-19 05:00:00 13.9 0 Calma 14 Sudeste 0 -- -- 69
2020-03-19 04:00:00 14.5 6 Sur 18 Sudeste 0 -- -- 66
2020-03-19 03:00:00 14.2 8 Sudeste 35 Sudeste 0 -- -- 70
2020-03-19 02:00:00 14.4 19 Sudeste 44 Sudeste 0 -- -- 70
2020-03-19 01:00:00 14.7 23 Sudeste 58 Sudeste 0 -- -- 69
2020-03-19 00:00:00 14.8 23 Sudeste 49 Sudeste 0 -- -- 70
2020-03-18 23:00:00 14.7 17 Sudeste 38 Sudeste 0 -- -- 71
2020-03-18 22:00:00 15 17 Sudeste 33 Sudeste 0 -- -- 68
2020-03-18 21:00:00 15.4 16 Sudeste 32 Sudeste 0 -- -- 65
2020-03-18 20:00:00 16.3 15 Sudeste 33 Este 0 -- -- 61
2020-03-18 19:00:00 17.8 18 Sudeste 38 Sudeste 0 -- -- 55
2020-03-18 18:00:00 19.1 20 Sudeste 40 Sudeste 0 -- -- 52
2020-03-18 17:00:00 19.8 22 Sudeste 44 Este 0 -- -- 49
2020-03-18 16:00:00 20.6 18 Sudeste 37 Sudeste 0 -- -- 47
2020-03-18 15:00:00 20.3 20 Sudeste 44 Este 0 -- -- 49
2020-03-18 14:00:00 19.6 19 Sudeste 43 Sudeste 0 -- -- 53
2020-03-18 13:00:00 18.8 21 Sudeste 43 Sudeste 0 -- -- 56
2020-03-18 12:00:00 18.1 21 Sudeste 38 Sudeste 0 -- -- 59
2020-03-18 11:00:00 17.4 16 Sudeste 31 Sudeste 0 -- -- 63
2020-03-18 10:00:00 16.1 10 Sudeste 18 Este 0 -- -- 71
2020-03-18 09:00:00 14.4 9 Este 24 Este 0 -- -- 75
2020-03-18 08:00:00 13.4 12 Este 21 Este 0 -- -- 79
2020-03-18 07:00:00 13.7 8 Este 16 Sudeste 0 -- -- 75
2020-03-18 06:00:00 13.2 5 Sudoeste 24 Este 0 -- -- 78
2020-03-18 05:00:00 12 9 Nordeste 28 Este 0 -- -- 81
2020-03-18 04:00:00 12.7 15 Este 27 Este 0 -- -- 80
2020-03-18 03:00:00 13.8 13 Sudeste 22 Este 0 -- -- 76
2020-03-18 02:00:00 13.2 9 Este 20 Este 0 -- -- 76
2020-03-18 01:00:00 12.6 8 Este 14 Este 0 -- -- 74
2020-03-18 00:00:00 11.9 6 Sudeste 12 Sudeste 0 -- -- 73
2020-03-17 23:00:00 12.1 10 Sudeste 21 Este 0 -- -- 74
2020-03-17 22:00:00 12.7 11 Este 24 Este 0 -- -- 67
2020-03-17 21:00:00 13.2 12 Sudeste 17 Sudeste 0 -- -- 66
2020-03-17 20:00:00 14.2 5 Sudeste 13 Nordeste 0 -- -- 59
2020-03-17 19:00:00 14.9 9 Este 17 Este 0 -- -- 54
2020-03-17 18:00:00 15.7 6 Nordeste 25 Sudeste 0 -- -- 51
2020-03-17 17:00:00 16.4 15 Sudeste 26 Sudeste 0 -- -- 41
2020-03-17 16:00:00 16 13 Sudeste 31 Este 0 -- -- 42
2020-03-17 15:00:00 14.5 6 Sudeste 30 Sudeste 0 -- -- 54
2020-03-17 14:00:00 13.5 14 Sudeste 50 Sudeste 0 -- -- 57
2020-03-17 13:00:00 14 22 Sudeste 48 Sudeste 0 -- -- 55
2020-03-17 12:00:00 13 17 Sudeste 37 Sudeste 0 -- -- 62
2020-03-17 11:00:00 11.4 8 Este 24 Nordeste 0 -- -- 71
2020-03-17 10:00:00 9.4 11 Este 19 Este 0.2 -- -- 80
2020-03-17 09:00:00 8.1 5 Sudeste 18 Sudeste 0 -- -- 84
2020-03-17 08:00:00 7.5 9 Sudeste 17 Este 0.6 -- -- 86
2020-03-17 07:00:00 7.2 10 Este 17 Este 0.2 -- -- 86
2020-03-17 06:00:00 7.2 8 Oeste 19 Sudeste 1.6 -- -- 84
2020-03-17 05:00:00 7.4 8 Sudeste 17 Sudeste 0.2 -- -- 78
2020-03-17 04:00:00 7.7 7 Sur 15 Sur 0.6 -- -- 81
2020-03-17 03:00:00 8.5 7 Sur 16 Sudoeste 0 -- -- 75
2020-03-17 02:00:00 8.8 5 Sur 10 Sur 0 -- -- 73
2020-03-17 01:00:00 8.5 5 Sudoeste 12 Sur 0 -- -- 77
2020-03-17 00:00:00 8.5 8 Sur 13 Sur 0 -- -- 78
2020-03-16 23:00:00 8.5 7 Sur 12 Sur 0.2 -- -- 79
2020-03-16 22:00:00 8.6 7 Noroeste 18 Oeste 0 -- -- 80
2020-03-16 21:00:00 9.6 14 Noroeste 19 Oeste 0 -- -- 69
2020-03-16 20:00:00 10.4 13 Noroeste 23 Noroeste 0 -- -- 59
2020-03-16 19:00:00 11.1 7 Norte 25 Norte 0 -- -- 53
2020-03-16 18:00:00 12.5 12 Noroeste 25 Noroeste 0 -- -- 45
2020-03-16 17:00:00 12.9 18 Noroeste 28 Noroeste 0 -- -- 43
2020-03-16 16:00:00 13.1 17 Oeste 34 Noroeste 0 -- -- 42
2020-03-16 15:00:00 13.3 22 Oeste 34 Noroeste 0 -- -- 42
2020-03-16 14:00:00 14 22 Noroeste 39 Oeste 0 -- -- 42
2020-03-16 13:00:00 12.6 21 Noroeste 38 Oeste 0 -- -- 45
2020-03-16 12:00:00 11.5 19 Noroeste 31 Oeste 0 -- -- 48
2020-03-16 11:00:00 10.6 12 Noroeste 22 Oeste 0 -- -- 51
2020-03-16 10:00:00 9.1 10 Noroeste 19 Noroeste 0.2 -- -- 54
2020-03-16 09:00:00 8 6 Noroeste 10 Noroeste 0 -- -- 63
2020-03-16 08:00:00 7.9 3 Oeste 12 Noroeste 0 -- -- 70
2020-03-16 07:00:00 8.6 7 Oeste 14 Oeste 0 -- -- 71
2020-03-16 06:00:00 9.3 8 Noroeste 15 Noroeste 0 -- -- 70
2020-03-16 05:00:00 9.9 10 Noroeste 20 Oeste 0 -- -- 70
2020-03-16 04:00:00 11.1 7 Oeste 27 Noroeste 0.4 -- -- 83
2020-03-16 03:00:00 13.2 21 Oeste 31 Oeste 0.2 -- -- 80
2020-03-16 02:00:00 14.6 13 Oeste 23 Sudoeste 0 -- -- 82
2020-03-16 01:00:00 14.6 15 Oeste 28 Sudoeste 0 -- -- 80
2020-03-16 00:00:00 14.8 17 Oeste 27 Oeste 0 -- -- 79
2020-03-15 23:00:00 15 13 Oeste 24 Oeste 0 -- -- 77
2020-03-15 22:00:00 16.4 14 Oeste 26 Sudoeste 0 -- -- 73
2020-03-15 21:00:00 17.6 19 Oeste 32 Sudoeste 0 -- -- 68
2020-03-15 20:00:00 19.1 4 Sur 17 Sudeste 0 -- -- 55
2020-03-15 19:00:00 20.5 9 Sudeste 16 Sudeste 0 -- -- 50
2020-03-15 18:00:00 21.5 8 Sudeste 13 Sudeste 0 -- -- 44
2020-03-15 17:00:00 21.4 8 Noroeste 14 Noroeste 0 -- -- 53
2020-03-15 16:00:00 21.5 6 Oeste 19 Oeste 0 -- -- 52
2020-03-15 15:00:00 21.5 13 Oeste 22 Oeste 0 -- -- 53
2020-03-15 14:00:00 20.9 6 Norte 21 Oeste 0 -- -- 54
2020-03-15 13:00:00 19.6 3 Oeste 14 Oeste 0 -- -- 59
2020-03-15 12:00:00 17.6 0 Calma 6 Oeste 0 -- -- 64
2020-03-15 11:00:00 16.1 2 Este 5 Sur 0 -- -- 66
2020-03-15 10:00:00 13.8 3 Sudoeste 4 Sudoeste 0 -- -- 76
2020-03-15 09:00:00 12.5 0 Calma 5 Noroeste 0 -- -- 80
2020-03-15 08:00:00 12.8 5 Este 15 Sudeste 0 -- -- 76
2020-03-15 07:00:00 13.2 8 Sudeste 12 Sudeste 0 -- -- 77
2020-03-15 06:00:00 12.9 3 Este 14 Sudeste 0 -- -- 78
2020-03-15 05:00:00 13.7 10 Sudeste 27 Sudeste 0 -- -- 77
2020-03-15 04:00:00 14.3 12 Sudeste 27 Sudeste 0 -- -- 71
2020-03-15 03:00:00 14.5 16 Sudeste 27 Sudeste 0 -- -- 66
2020-03-15 02:00:00 15.1 10 Sudeste 23 Sudeste 0 -- -- 65
2020-03-15 01:00:00 14.8 14 Sudeste 24 Sudeste 0 -- -- 68
2020-03-15 00:00:00 15.4 15 Sudeste 22 Sudeste 0 -- -- 69
2020-03-14 23:00:00 16.7 7 Sudeste 10 Sudeste 0 -- -- 71
2020-03-14 22:00:00 17.1 6 Sudeste 7 Sudeste 0 -- -- 70
2020-03-14 21:00:00 18 0 Calma 5 Norte 0 -- -- 67
2020-03-14 20:00:00 18.9 2 Norte 7 Noroeste 0 -- -- 65
2020-03-14 19:00:00 20.7 5 Oeste 12 Noroeste 0 -- -- 60
2020-03-14 18:00:00 21.3 8 Noroeste 13 Oeste 0 -- -- 58
2020-03-14 17:00:00 21.2 7 Oeste 15 Oeste 0 -- -- 59
2020-03-14 16:00:00 20.2 7 Oeste 17 Noroeste 0 -- -- 63
2020-03-14 15:00:00 19 8 Oeste 15 Noroeste 0 -- -- 66
2020-03-14 14:00:00 16.2 5 Norte 10 Noroeste 0 -- -- 73
2020-03-14 13:00:00 13.9 5 Norte 12 Noroeste 0 -- -- 83
2020-03-14 12:00:00 12.2 6 Noroeste 10 Norte 0 -- -- 91
2020-03-14 11:00:00 11.2 6 Noroeste 11 Noroeste 0 -- -- 95
2020-03-14 10:00:00 10.5 3 Nordeste 9 Noroeste 0 -- -- 95
2020-03-14 09:00:00 9.8 4 Norte 11 Norte 0 -- -- 95
2020-03-14 08:00:00 10.4 0 Calma 4 Sudoeste 0 -- -- 93
2020-03-14 07:00:00 11.2 0 Calma 4 Oeste 0 -- -- 92
2020-03-14 06:00:00 11.7 0 Calma 6 Nordeste 0 -- -- 91
2020-03-14 05:00:00 11.3 0 Calma 10 Nordeste 0 -- -- 90
2020-03-14 04:00:00 11.9 6 Nordeste 10 Nordeste 0 -- -- 88
2020-03-14 03:00:00 12.8 2 Sur 4 Nordeste 0 -- -- 84
2020-03-14 02:00:00 13.1 0 Calma 6 Norte 0 -- -- 83
2020-03-14 01:00:00 13.9 3 Norte 5 Norte 0 -- -- 80
2020-03-14 00:00:00 14.7 0 Calma 7 Sur 0 -- -- 78
2020-03-13 23:00:00 15.1 4 Sur 12 Sudoeste 0 -- -- 76
2020-03-13 22:00:00 16 8 Sudoeste 14 Oeste 0 -- -- 73
2020-03-13 21:00:00 17.2 10 Oeste 18 Oeste 0 -- -- 69
2020-03-13 20:00:00 18.6 7 Oeste 15 Oeste 0 -- -- 65
2020-03-13 19:00:00 21 13 Oeste 25 Oeste 0 -- -- 56
2020-03-13 18:00:00 22.3 16 Oeste 24 Oeste 0 -- -- 49
2020-03-13 17:00:00 22 14 Oeste 29 Oeste 0 -- -- 49
2020-03-13 16:00:00 21.9 15 Oeste 28 Oeste 0 -- -- 48
2020-03-13 15:00:00 20.5 14 Oeste 23 Oeste 0 -- -- 50
2020-03-13 14:00:00 18.4 10 Noroeste 18 Oeste 0 -- -- 63
2020-03-13 13:00:00 16.1 9 Oeste 15 Oeste 0 -- -- 71
2020-03-13 12:00:00 14 6 Oeste 15 Noroeste 0 -- -- 79
2020-03-13 11:00:00 12.7 3 Noroeste 10 Oeste 0 -- -- 85
2020-03-13 10:00:00 11.9 4 Oeste 8 Oeste 0 -- -- 90
2020-03-13 09:00:00 11.2 3 Sur 7 Sur 0 -- -- 93
2020-03-13 08:00:00 11 2 Sudoeste 6 Sur 0 -- -- 93
2020-03-13 07:00:00 10.6 2 Sudoeste 5 Sudoeste 0 -- -- 91
2020-03-13 06:00:00 10.9 5 Noroeste 12 Noroeste 0 -- -- 86
2020-03-13 05:00:00 13.9 4 Norte 7 Norte 0 -- -- 62
2020-03-13 04:00:00 15.3 3 Sudeste 4 Nordeste 0 -- -- 55
2020-03-13 03:00:00 16.1 3 Nordeste 5 Sudeste 0 -- -- 52
2020-03-13 02:00:00 16.7 3 Sudeste 9 Sudeste 0 -- -- 51
2020-03-13 01:00:00 17 4 Sur 11 Sur 0 -- -- 55
2020-03-13 00:00:00 17 7 Sudeste 13 Sudeste 0 -- -- 63
2020-03-12 23:00:00 17.1 3 Oeste 10 Oeste 0 -- -- 69
2020-03-12 22:00:00 17.6 10 Oeste 14 Oeste 0 -- -- 67
2020-03-12 21:00:00 18.1 8 Oeste 13 Oeste 0 -- -- 65
2020-03-12 20:00:00 19.4 9 Oeste 27 Oeste 0 -- -- 61
2020-03-12 19:00:00 22.7 17 Oeste 30 Oeste 0 -- -- 53
2020-03-12 18:00:00 25.6 15 Oeste 29 Oeste 0 -- -- 43
2020-03-12 17:00:00 25.7 17 Oeste 28 Oeste 0 -- -- 42
2020-03-12 16:00:00 25.5 15 Oeste 23 Oeste 0 -- -- 40
2020-03-12 15:00:00 24.8 12 Noroeste 21 Oeste 0 -- -- 41
2020-03-12 14:00:00 23.8 11 Noroeste 18 Oeste 0 -- -- 43
2020-03-12 13:00:00 22.6 8 Noroeste 17 Oeste 0 -- -- 43
2020-03-12 12:00:00 21.4 7 Oeste 12 Oeste 0 -- -- 44
2020-03-12 11:00:00 19.4 6 Noroeste 16 Noroeste 0 -- -- 47
2020-03-12 10:00:00 18.5 3 Noroeste 7 Oeste 0 -- -- 46
2020-03-12 09:00:00 18.1 2 Sur 8 Sudeste 0 -- -- 45
2020-03-12 08:00:00 16.5 4 Sudeste 8 Sudeste 0 -- -- 46
2020-03-12 07:00:00 16.7 0 Calma 14 Este 0 -- -- 44
2020-03-12 06:00:00 18.3 12 Sudeste 28 Sudeste 0 -- -- 40
2020-03-12 05:00:00 18.3 19 Sudeste 33 Sudeste 0 -- -- 40
2020-03-12 04:00:00 20 15 Sudeste 25 Sudeste 0 -- -- 36
2020-03-12 03:00:00 20.3 6 Este 12 Este 0 -- -- 35
2020-03-12 02:00:00 22.2 5 Sur 28 Este 0 -- -- 31
2020-03-12 01:00:00 20.8 4 Este 21 Este 0 -- -- 34
2020-03-12 00:00:00 21.2 12 Este 21 Este 0 -- -- 34
2020-03-11 23:00:00 21 10 Este 19 Este 0 -- -- 35
2020-03-11 22:00:00 21.9 10 Este 23 Este 0 -- -- 33
2020-03-11 21:00:00 23 12 Este 22 Este 0 -- -- 31
2020-03-11 20:00:00 23.9 14 Sudeste 23 Sudeste 0 -- -- 31
2020-03-11 19:00:00 25.9 15 Sudeste 29 Sudeste 0 -- -- 28
2020-03-11 18:00:00 27.3 19 Sudeste 32 Sudeste 0 -- -- 26
2020-03-11 17:00:00 27 18 Sudeste 35 Sudeste 0 -- -- 27
2020-03-11 16:00:00 27.4 20 Sudeste 37 Este 0 -- -- 26
2020-03-11 15:00:00 27.6 22 Sudeste 44 Sudeste 0 -- -- 27
2020-03-11 14:00:00 27.1 23 Sudeste 41 Sudeste 0 -- -- 27
2020-03-11 13:00:00 26.3 20 Sudeste 36 Sur 0 -- -- 28
2020-03-11 12:00:00 25.6 19 Sudeste 36 Sudeste 0 -- -- 29
2020-03-11 11:00:00 24.3 13 Sudeste 31 Sudeste 0 -- -- 31
2020-03-11 10:00:00 21.2 15 Sudeste 26 Este 0 -- -- 37
2020-03-11 09:00:00 18.5 8 Este 22 Este 0 -- -- 41
2020-03-11 08:00:00 17.5 11 Este 22 Este 0 -- -- 42
2020-03-11 07:00:00 16.9 10 Este 24 Este 0 -- -- 44
2020-03-11 06:00:00 16.2 13 Este 34 Sudeste 0 -- -- 44
2020-03-11 05:00:00 15.9 16 Sudeste 27 Sudeste 0 -- -- 45
2020-03-11 04:00:00 16.1 15 Este 24 Este 0 -- -- 46
2020-03-11 03:00:00 15.4 9 Este 14 Este 0 -- -- 50
2020-03-11 02:00:00 14.8 3 Sudoeste 21 Sudeste 0 -- -- 53
2020-03-11 01:00:00 17.7 12 Este 21 Este 0 -- -- 43
2020-03-11 00:00:00 19.1 11 Sudeste 21 Este 0 -- -- 41
2020-03-10 23:00:00 18.7 12 Sudeste 26 Sudeste 0 -- -- 43
2020-03-10 22:00:00 18.7 18 Sudeste 26 Sudeste 0 -- -- 43
2020-03-10 21:00:00 19.8 13 Sudeste 20 Sudeste 0 -- -- 40
2020-03-10 20:00:00 20.9 13 Sudeste 28 Sudeste 0 -- -- 39
2020-03-10 19:00:00 23.6 9 Sudeste 20 Sudeste 0 -- -- 33
2020-03-10 18:00:00 25.3 9 Sudeste 20 Sudeste 0 -- -- 29
2020-03-10 17:00:00 25.7 6 Este 15 Sudeste 0 -- -- 29
2020-03-10 16:00:00 25.6 6 Este 16 Sudeste 0 -- -- 28
2020-03-10 15:00:00 24.5 8 Nordeste 21 Norte 0 -- -- 32
2020-03-10 14:00:00 23.3 10 Nordeste 20 Nordeste 0 -- -- 34
2020-03-10 13:00:00 21.5 10 Norte 19 Norte 0 -- -- 37
2020-03-10 12:00:00 19.3 10 Norte 18 Norte 0 -- -- 42
2020-03-10 11:00:00 17.3 7 Norte 15 Norte 0 -- -- 46
2020-03-10 10:00:00 15 7 Nordeste 13 Este 0 -- -- 49
2020-03-10 09:00:00 12.4 2 Sur 14 Este 0 -- -- 56
2020-03-10 08:00:00 11.9 9 Nordeste 17 Nordeste 0 -- -- 57
2020-03-10 07:00:00 11.8 0 Calma 18 Este 0 -- -- 57
2020-03-10 06:00:00 13.5 8 Este 17 Este 0 -- -- 53
2020-03-10 05:00:00 14.2 7 Nordeste 21 Este 0 -- -- 50
2020-03-10 04:00:00 15.1 9 Este 18 Este 0 -- -- 47
2020-03-10 03:00:00 15.1 6 Este 13 Este 0 -- -- 47
2020-03-10 02:00:00 15.4 7 Este 11 Este 0 -- -- 46
2020-03-10 01:00:00 15.8 4 Este 10 Este 0 -- -- 47
2020-03-10 00:00:00 15.4 3 Este 7 Este 0 -- -- 47
2020-03-09 23:00:00 16.4 0 Calma 7 Noroeste 0 -- -- 48
2020-03-09 22:00:00 17.2 0 Calma 6 Sur 0 -- -- 46
2020-03-09 21:00:00 17.7 4 Sudeste 7 Sudeste 0 -- -- 45
2020-03-09 20:00:00 18.9 2 Sur 4 Sudoeste 0 -- -- 42
2020-03-09 19:00:00 20.6 4 Norte 13 Norte 0 -- -- 37
2020-03-09 18:00:00 21.1 8 Noroeste 19 Noroeste 0 -- -- 34
2020-03-09 17:00:00 21 9 Noroeste 22 Noroeste 0 -- -- 33
2020-03-09 16:00:00 21.1 13 Noroeste 25 Oeste 0 -- -- 33
2020-03-09 15:00:00 20.4 5 Noroeste 17 Noroeste 0 -- -- 38
2020-03-09 14:00:00 19.5 7 Norte 16 Norte 0 -- -- 36
2020-03-09 13:00:00 18.8 6 Norte 14 Norte 0 -- -- 37
2020-03-09 12:00:00 17.5 5 Norte 12 Norte 0 -- -- 50
2020-03-09 11:00:00 15.9 5 Oeste 9 Oeste 0 -- -- 58
2020-03-09 10:00:00 14.1 6 Norte 9 Norte 0 -- -- 63
2020-03-09 09:00:00 12.7 3 Sudeste 9 Sudeste 0 -- -- 65
2020-03-09 08:00:00 11 4 Sudeste 9 Sudeste 0 -- -- 69
2020-03-09 07:00:00 11.1 0 Calma 5 Este 0 -- -- 67
2020-03-09 06:00:00 11.5 3 Este 4 Sudeste 0 -- -- 64
2020-03-09 05:00:00 11.7 4 Sudeste 8 Sudeste 0 -- -- 63
2020-03-09 04:00:00 12 0 Calma 4 Sudeste 0 -- -- 60
2020-03-09 03:00:00 12.7 0 Calma 4 Norte 0 -- -- 57
2020-03-09 02:00:00 13.7 2 Nordeste 9 Nordeste 0 -- -- 53
2020-03-09 01:00:00 14.7 4 Nordeste 11 Nordeste 0 -- -- 46
2020-03-09 00:00:00 14.6 6 Nordeste 19 Norte 0 -- -- 46